sensor_id;sensor_type;location;lat;lon;timestamp;P1;durP1;ratioP1;P2;durP2;ratioP2
50086;SDS011;35967;50.718;7.050;2023-03-01T00:04:37;15.80;;;8.80;;
50086;SDS011;35967;50.718;7.050;2023-03-01T00:14:39;18.47;;;9.70;;
50086;SDS011;35967;50.718;7.050;2023-03-01T00:24:44;19.70;;;10.70;;
50086;SDS011;35967;50.718;7.050;2023-03-01T00:34:47;19.37;;;10.30;;
50086;SDS011;35967;50.718;7.050;2023-03-01T00:44:58;22.87;;;10.33;;
50086;SDS011;35967;50.718;7.050;2023-03-01T00:55:01;21.43;;;10.37;;
50086;SDS011;35967;50.718;7.050;2023-03-01T01:05:07;21.30;;;9.70;;
50086;SDS011;35967;50.718;7.050;2023-03-01T01:15:10;21.80;;;10.17;;
50086;SDS011;35967;50.718;7.050;2023-03-01T01:25:16;21.50;;;10.77;;
50086;SDS011;35967;50.718;7.050;2023-03-01T01:35:20;20.83;;;10.40;;
50086;SDS011;35967;50.718;7.050;2023-03-01T01:45:27;20.07;;;10.03;;
50086;SDS011;35967;50.718;7.050;2023-03-01T01:55:32;22.93;;;9.23;;
50086;SDS011;35967;50.718;7.050;2023-03-01T02:05:38;21.77;;;9.70;;
50086;SDS011;35967;50.718;7.050;2023-03-01T02:15:55;19.93;;;10.00;;
50086;SDS011;35967;50.718;7.050;2023-03-01T02:26:01;19.20;;;9.20;;
50086;SDS011;35967;50.718;7.050;2023-03-01T02:36:14;21.30;;;11.17;;
50086;SDS011;35967;50.718;7.050;2023-03-01T02:46:21;18.40;;;9.63;;
50086;SDS011;35967;50.718;7.050;2023-03-01T02:56:26;17.00;;;9.00;;
50086;SDS011;35967;50.718;7.050;2023-03-01T03:06:31;21.37;;;10.30;;
50086;SDS011;35967;50.718;7.050;2023-03-01T03:16:35;18.30;;;9.80;;
50086;SDS011;35967;50.718;7.050;2023-03-01T03:26:39;20.60;;;9.20;;
50086;SDS011;35967;50.718;7.050;2023-03-01T03:36:43;21.00;;;10.60;;
50086;SDS011;35967;50.718;7.050;2023-03-01T03:46:46;20.87;;;9.90;;
50086;SDS011;35967;50.718;7.050;2023-03-01T03:56:51;17.70;;;8.23;;
50086;SDS011;35967;50.718;7.050;2023-03-01T04:06:54;19.83;;;8.43;;
50086;SDS011;35967;50.718;7.050;2023-03-01T04:16:58;19.53;;;8.93;;
50086;SDS011;35967;50.718;7.050;2023-03-01T04:27:02;16.13;;;8.77;;
50086;SDS011;35967;50.718;7.050;2023-03-01T04:37:06;18.50;;;9.50;;
50086;SDS011;35967;50.718;7.050;2023-03-01T04:47:10;21.07;;;8.47;;
50086;SDS011;35967;50.718;7.050;2023-03-01T04:57:15;25.23;;;8.93;;
50086;SDS011;35967;50.718;7.050;2023-03-01T05:07:18;22.93;;;10.40;;
50086;SDS011;35967;50.718;7.050;2023-03-01T05:17:22;23.57;;;9.50;;
50086;SDS011;35967;50.718;7.050;2023-03-01T05:27:26;21.33;;;10.23;;
50086;SDS011;35967;50.718;7.050;2023-03-01T05:37:30;20.90;;;10.17;;
50086;SDS011;35967;50.718;7.050;2023-03-01T05:47:33;20.30;;;9.83;;
50086;SDS011;35967;50.718;7.050;2023-03-01T05:57:38;15.23;;;7.90;;
50086;SDS011;35967;50.718;7.050;2023-03-01T06:07:41;20.73;;;10.73;;
50086;SDS011;35967;50.718;7.050;2023-03-01T06:17:47;26.03;;;10.73;;
50086;SDS011;35967;50.718;7.050;2023-03-01T06:27:51;29.33;;;10.77;;
50086;SDS011;35967;50.718;7.050;2023-03-01T06:37:56;30.93;;;12.53;;
50086;SDS011;35967;50.718;7.050;2023-03-01T06:48:03;34.90;;;12.97;;
50086;SDS011;35967;50.718;7.050;2023-03-01T06:58:09;26.53;;;11.37;;
50086;SDS011;35967;50.718;7.050;2023-03-01T07:08:13;28.70;;;12.63;;
50086;SDS011;35967;50.718;7.050;2023-03-01T07:18:19;29.83;;;11.50;;
50086;SDS011;35967;50.718;7.050;2023-03-01T07:28:22;27.43;;;11.57;;
50086;SDS011;35967;50.718;7.050;2023-03-01T07:38:27;26.03;;;11.60;;
50086;SDS011;35967;50.718;7.050;2023-03-01T07:48:30;25.40;;;11.90;;
50086;SDS011;35967;50.718;7.050;2023-03-01T07:58:36;30.00;;;11.43;;
50086;SDS011;35967;50.718;7.050;2023-03-01T08:08:40;26.60;;;12.17;;
50086;SDS011;35967;50.718;7.050;2023-03-01T08:18:45;24.33;;;13.67;;
50086;SDS011;35967;50.718;7.050;2023-03-01T08:28:49;26.43;;;14.60;;
50086;SDS011;35967;50.718;7.050;2023-03-01T08:38:53;27.77;;;13.53;;
50086;SDS011;35967;50.718;7.050;2023-03-01T08:48:57;47.87;;;22.47;;
50086;SDS011;35967;50.718;7.050;2023-03-01T08:59:02;34.13;;;19.17;;
50086;SDS011;35967;50.718;7.050;2023-03-01T09:09:05;26.67;;;13.90;;
50086;SDS011;35967;50.718;7.050;2023-03-01T09:19:12;21.70;;;12.83;;
50086;SDS011;35967;50.718;7.050;2023-03-01T09:29:18;25.27;;;13.53;;
50086;SDS011;35967;50.718;7.050;2023-03-01T09:39:22;23.57;;;12.10;;
50086;SDS011;35967;50.718;7.050;2023-03-01T09:49:26;31.13;;;12.80;;
50086;SDS011;35967;50.718;7.050;2023-03-01T09:59:37;31.23;;;15.07;;
50086;SDS011;35967;50.718;7.050;2023-03-01T10:09:55;22.33;;;12.67;;
50086;SDS011;35967;50.718;7.050;2023-03-01T10:30:17;24.87;;;11.93;;
50086;SDS011;35967;50.718;7.050;2023-03-01T10:40:24;18.50;;;10.47;;
50086;SDS011;35967;50.718;7.050;2023-03-01T10:50:28;26.07;;;11.70;;
50086;SDS011;35967;50.718;7.050;2023-03-01T11:00:33;20.83;;;10.43;;
50086;SDS011;35967;50.718;7.050;2023-03-01T11:10:49;21.20;;;10.73;;
50086;SDS011;35967;50.718;7.050;2023-03-01T11:20:53;17.97;;;9.43;;
50086;SDS011;35967;50.718;7.050;2023-03-01T11:31:00;15.97;;;9.53;;
50086;SDS011;35967;50.718;7.050;2023-03-01T11:41:13;17.47;;;9.47;;
50086;SDS011;35967;50.718;7.050;2023-03-01T11:51:20;13.88;;;7.75;;
50086;SDS011;35967;50.718;7.050;2023-03-01T12:01:32;11.10;;;6.63;;
50086;SDS011;35967;50.718;7.050;2023-03-01T12:11:52;13.73;;;7.10;;
50086;SDS011;35967;50.718;7.050;2023-03-01T12:22:16;12.77;;;6.72;;
50086;SDS011;35967;50.718;7.050;2023-03-01T12:32:34;16.00;;;7.97;;
50086;SDS011;35967;50.718;7.050;2023-03-01T12:42:48;15.63;;;6.97;;
50086;SDS011;35967;50.718;7.050;2023-03-01T12:53:01;14.07;;;8.30;;
50086;SDS011;35967;50.718;7.050;2023-03-01T13:03:09;19.83;;;7.93;;
50086;SDS011;35967;50.718;7.050;2023-03-01T13:13:21;12.97;;;6.87;;
50086;SDS011;35967;50.718;7.050;2023-03-01T13:23:28;15.83;;;6.40;;
50086;SDS011;35967;50.718;7.050;2023-03-01T13:33:39;11.63;;;6.37;;
50086;SDS011;35967;50.718;7.050;2023-03-01T13:43:48;14.13;;;6.70;;
50086;SDS011;35967;50.718;7.050;2023-03-01T13:53:53;15.80;;;6.17;;
50086;SDS011;35967;50.718;7.050;2023-03-01T14:04:00;11.13;;;6.40;;
50086;SDS011;35967;50.718;7.050;2023-03-01T14:14:09;13.90;;;5.37;;
50086;SDS011;35967;50.718;7.050;2023-03-01T14:24:22;12.23;;;5.07;;
50086;SDS011;35967;50.718;7.050;2023-03-01T14:34:26;10.10;;;5.03;;
50086;SDS011;35967;50.718;7.050;2023-03-01T14:44:31;9.53;;;3.83;;
50086;SDS011;35967;50.718;7.050;2023-03-01T14:54:37;12.20;;;5.63;;
50086;SDS011;35967;50.718;7.050;2023-03-01T15:04:45;11.60;;;4.33;;
50086;SDS011;35967;50.718;7.050;2023-03-01T15:14:51;12.90;;;5.67;;
50086;SDS011;35967;50.718;7.050;2023-03-01T15:25:13;11.67;;;5.73;;
50086;SDS011;35967;50.718;7.050;2023-03-01T15:35:35;8.87;;;5.00;;
50086;SDS011;35967;50.718;7.050;2023-03-01T15:45:46;11.60;;;5.67;;
50086;SDS011;35967;50.718;7.050;2023-03-01T15:55:59;11.57;;;4.37;;
50086;SDS011;35967;50.718;7.050;2023-03-01T16:06:03;8.27;;;3.40;;
50086;SDS011;35967;50.718;7.050;2023-03-01T16:16:08;10.47;;;5.40;;
50086;SDS011;35967;50.718;7.050;2023-03-01T16:26:15;11.63;;;5.80;;
50086;SDS011;35967;50.718;7.050;2023-03-01T16:36:22;16.83;;;6.43;;
50086;SDS011;35967;50.718;7.050;2023-03-01T16:46:28;14.50;;;6.47;;
50086;SDS011;35967;50.718;7.050;2023-03-01T16:56:31;18.57;;;6.67;;
50086;SDS011;35967;50.718;7.050;2023-03-01T17:06:37;15.13;;;6.00;;
50086;SDS011;35967;50.718;7.050;2023-03-01T17:16:40;10.33;;;5.90;;
50086;SDS011;35967;50.718;7.050;2023-03-01T17:26:45;10.70;;;5.57;;
50086;SDS011;35967;50.718;7.050;2023-03-01T17:36:48;8.53;;;4.27;;
50086;SDS011;35967;50.718;7.050;2023-03-01T17:46:54;10.17;;;4.53;;
50086;SDS011;35967;50.718;7.050;2023-03-01T17:56:57;16.50;;;5.30;;
50086;SDS011;35967;50.718;7.050;2023-03-01T18:07:02;15.37;;;6.90;;
50086;SDS011;35967;50.718;7.050;2023-03-01T18:17:05;14.20;;;6.77;;
50086;SDS011;35967;50.718;7.050;2023-03-01T18:27:14;9.80;;;4.70;;
50086;SDS011;35967;50.718;7.050;2023-03-01T18:37:18;11.33;;;4.57;;
50086;SDS011;35967;50.718;7.050;2023-03-01T18:47:22;10.63;;;4.00;;
50086;SDS011;35967;50.718;7.050;2023-03-01T18:57:26;15.50;;;5.30;;
50086;SDS011;35967;50.718;7.050;2023-03-01T19:07:30;10.10;;;4.17;;
50086;SDS011;35967;50.718;7.050;2023-03-01T19:17:35;12.30;;;5.47;;
50086;SDS011;35967;50.718;7.050;2023-03-01T19:27:39;12.73;;;7.37;;
50086;SDS011;35967;50.718;7.050;2023-03-01T19:37:43;16.23;;;8.47;;
50086;SDS011;35967;50.718;7.050;2023-03-01T19:47:47;18.37;;;9.50;;
50086;SDS011;35967;50.718;7.050;2023-03-01T19:57:53;18.37;;;9.20;;
50086;SDS011;35967;50.718;7.050;2023-03-01T20:07:57;19.47;;;9.13;;
50086;SDS011;35967;50.718;7.050;2023-03-01T20:18:01;17.63;;;9.53;;
50086;SDS011;35967;50.718;7.050;2023-03-01T20:28:05;18.27;;;9.70;;
50086;SDS011;35967;50.718;7.050;2023-03-01T20:38:10;22.97;;;10.90;;
50086;SDS011;35967;50.718;7.050;2023-03-01T20:48:14;22.07;;;10.83;;
50086;SDS011;35967;50.718;7.050;2023-03-01T20:58:18;20.87;;;11.07;;
50086;SDS011;35967;50.718;7.050;2023-03-01T21:08:22;21.10;;;11.13;;
50086;SDS011;35967;50.718;7.050;2023-03-01T21:18:26;25.40;;;11.13;;
50086;SDS011;35967;50.718;7.050;2023-03-01T21:28:32;26.03;;;11.50;;
50086;SDS011;35967;50.718;7.050;2023-03-01T21:38:36;25.00;;;10.70;;
50086;SDS011;35967;50.718;7.050;2023-03-01T21:48:42;23.07;;;11.30;;
50086;SDS011;35967;50.718;7.050;2023-03-01T21:58:47;23.57;;;11.33;;
50086;SDS011;35967;50.718;7.050;2023-03-01T22:08:52;21.70;;;9.40;;
50086;SDS011;35967;50.718;7.050;2023-03-01T22:18:59;17.87;;;8.73;;
50086;SDS011;35967;50.718;7.050;2023-03-01T22:29:04;23.17;;;10.40;;
50086;SDS011;35967;50.718;7.050;2023-03-01T22:39:11;22.00;;;9.83;;
50086;SDS011;35967;50.718;7.050;2023-03-01T22:49:17;22.60;;;9.80;;
50086;SDS011;35967;50.718;7.050;2023-03-01T22:59:21;25.07;;;10.07;;
50086;SDS011;35967;50.718;7.050;2023-03-01T23:09:26;20.43;;;9.60;;
50086;SDS011;35967;50.718;7.050;2023-03-01T23:19:31;25.87;;;10.37;;
50086;SDS011;35967;50.718;7.050;2023-03-01T23:29:36;23.13;;;9.03;;
50086;SDS011;35967;50.718;7.050;2023-03-01T23:39:38;17.53;;;9.27;;
50086;SDS011;35967;50.718;7.050;2023-03-01T23:49:44;18.93;;;9.10;;
50086;SDS011;35967;50.718;7.050;2023-03-01T23:59:47;20.87;;;8.47;;
